Time;durP1;ratioP1;P1;durP2;ratioP2;P2;SDS_P1;SDS_P2;PMS_P1;PMS_P2;Temp;Humidity;BMP_temperature;BMP_pressure;BME280_temperature;BME280_humidity;BME280_pressure;Samples;Min_cycle;Max_cycle;Signal;HPM_P1;HPM_P2
2023/05/13 00:01:40;;;;;;;6.78;2.63;;;;;;;;;;5018106;28;20123;-79
2023/05/13 00:04:05;;;;;;;5.07;2.78;;;;;;;;;;5032267;28;20084;-79
2023/05/13 00:06:31;;;;;;;5.47;2.65;;;;;;;;;;5029444;28;20128;-79
2023/05/13 00:08:57;;;;;;;4.28;2.22;;;;;;;;;;5027932;28;20045;-79
2023/05/13 00:11:23;;;;;;;4.18;2.22;;;;;;;;;;5030636;28;20493;-80
2023/05/13 00:13:48;;;;;;;5.38;2.47;;;;;;;;;;5016980;28;20044;-79
2023/05/13 00:16:14;;;;;;;5.13;2.53;;;;;;;;;;5031076;28;20446;-79
2023/05/13 00:18:39;;;;;;;6.20;2.80;;;;;;;;;;5040058;28;20041;-79
2023/05/13 00:21:05;;;;;;;5.38;2.42;;;;;;;;;;5034694;28;20033;-79
2023/05/13 00:23:31;;;;;;;6.38;2.60;;;;;;;;;;5031927;28;20037;-79
2023/05/13 00:25:57;;;;;;;5.45;2.78;;;;;;;;;;5032986;28;20040;-79
2023/05/13 00:28:23;;;;;;;5.43;2.42;;;;;;;;;;5035919;28;20033;-80
2023/05/13 00:30:48;;;;;;;5.88;2.70;;;;;;;;;;5030298;28;20159;-80
2023/05/13 00:33:14;;;;;;;4.20;2.45;;;;;;;;;;5030343;28;20069;-80
2023/05/13 00:35:39;;;;;;;5.45;2.78;;;;;;;;;;5032354;28;20037;-80
2023/05/13 00:38:05;;;;;;;6.28;2.65;;;;;;;;;;5034201;28;20371;-80
2023/05/13 00:40:33;;;;;;;3.58;2.45;;;;;;;;;;5031917;28;20030;-80
2023/05/13 00:42:58;;;;;;;4.50;2.50;;;;;;;;;;5034627;28;20033;-80
2023/05/13 00:45:23;;;;;;;6.45;2.78;;;;;;;;;;5031223;28;20405;-79
2023/05/13 00:47:49;;;;;;;5.45;2.72;;;;;;;;;;5031051;28;20102;-79
2023/05/13 00:50:14;;;;;;;4.28;2.33;;;;;;;;;;5035014;28;20048;-80
2023/05/13 00:52:41;;;;;;;4.63;2.72;;;;;;;;;;5020740;28;20115;-80
2023/05/13 00:55:07;;;;;;;5.40;2.67;;;;;;;;;;5029751;28;20492;-80
2023/05/13 00:57:34;;;;;;;4.80;2.75;;;;;;;;;;5016293;28;20045;-80
2023/05/13 00:59:59;;;;;;;4.43;2.50;;;;;;;;;;5031151;28;20045;-80
2023/05/13 01:02:33;;;;;;;5.32;2.75;;;;;;;;;;5018250;28;20041;-79
2023/05/13 01:05:10;;;;;;;5.05;2.75;;;;;;;;;;5036377;28;20413;-79
2023/05/13 01:07:54;;;;;;;5.00;2.67;;;;;;;;;;5034256;28;20573;-80
2023/05/13 01:10:26;;;;;;;4.50;2.63;;;;;;;;;;5032658;28;20044;-80
2023/05/13 01:12:56;;;;;;;5.65;2.90;;;;;;;;;;5035904;28;20038;-80
2023/05/13 01:15:25;;;;;;;5.60;2.80;;;;;;;;;;5039146;28;20044;-80
2023/05/13 01:18:07;;;;;;;6.28;2.80;;;;;;;;;;5025924;28;20419;-80
2023/05/13 01:20:33;;;;;;;4.60;2.53;;;;;;;;;;5038579;28;20485;-80
2023/05/13 01:22:59;;;;;;;4.53;2.83;;;;;;;;;;5019761;28;20075;-80
2023/05/13 01:25:27;;;;;;;4.63;2.53;;;;;;;;;;5037357;28;20127;-80
2023/05/13 01:27:52;;;;;;;7.15;2.90;;;;;;;;;;5033872;28;20377;-81
2023/05/13 01:30:18;;;;;;;5.90;2.72;;;;;;;;;;5033962;28;20044;-81
2023/05/13 01:32:44;;;;;;;6.32;2.85;;;;;;;;;;5016940;28;20041;-80
2023/05/13 01:35:10;;;;;;;5.32;2.65;;;;;;;;;;5034216;28;20094;-80
2023/05/13 01:37:36;;;;;;;5.47;3.03;;;;;;;;;;5037034;28;20393;-81
2023/05/13 01:40:02;;;;;;;7.82;3.10;;;;;;;;;;5034266;28;20310;-80
2023/05/13 01:42:30;;;;;;;7.43;3.05;;;;;;;;;;5021843;28;20033;-80
2023/05/13 01:44:55;;;;;;;5.57;2.80;;;;;;;;;;5036393;28;20465;-80
2023/05/13 01:47:20;;;;;;;5.03;2.80;;;;;;;;;;5034588;28;20053;-80
2023/05/13 01:49:46;;;;;;;8.75;3.35;;;;;;;;;;5019796;28;20382;-79
2023/05/13 01:52:11;;;;;;;5.25;2.95;;;;;;;;;;5036462;28;20093;-79
2023/05/13 01:54:37;;;;;;;6.35;3.30;;;;;;;;;;5033538;28;20052;-79
2023/05/13 01:57:02;;;;;;;6.38;2.80;;;;;;;;;;5033235;28;20041;-79
2023/05/13 01:59:28;;;;;;;4.50;2.47;;;;;;;;;;5035577;28;20102;-80
2023/05/13 02:01:53;;;;;;;6.78;3.45;;;;;;;;;;5034031;28;20068;-79
2023/05/13 02:04:18;;;;;;;7.95;3.05;;;;;;;;;;5021605;28;20086;-79
2023/05/13 02:06:44;;;;;;;4.72;2.83;;;;;;;;;;5035152;28;20040;-79
2023/05/13 02:09:09;;;;;;;4.90;2.97;;;;;;;;;;5036330;28;20033;-79
2023/05/13 02:11:35;;;;;;;5.43;2.63;;;;;;;;;;5023886;28;20988;-80
2023/05/13 02:14:00;;;;;;;6.10;3.05;;;;;;;;;;5033186;28;20025;-79
2023/05/13 02:16:26;;;;;;;4.85;2.83;;;;;;;;;;5036764;28;20142;-79
2023/05/13 02:18:51;;;;;;;4.63;2.85;;;;;;;;;;5036123;28;20068;-78
2023/05/13 02:21:17;;;;;;;4.75;2.80;;;;;;;;;;5032748;28;20038;-78
2023/05/13 02:23:42;;;;;;;4.85;2.75;;;;;;;;;;5026524;28;20392;-79
2023/05/13 02:26:07;;;;;;;6.45;3.58;;;;;;;;;;5033712;28;20056;-78
2023/05/13 02:28:33;;;;;;;8.10;3.30;;;;;;;;;;5035271;28;20393;-79
2023/05/13 02:30:58;;;;;;;5.88;2.90;;;;;;;;;;5025162;28;20112;-79
2023/05/13 02:33:24;;;;;;;4.90;2.80;;;;;;;;;;5031888;28;20095;-79
2023/05/13 02:35:49;;;;;;;7.13;2.75;;;;;;;;;;5032986;28;20048;-79
2023/05/13 02:38:15;;;;;;;7.68;2.80;;;;;;;;;;5020211;28;20475;-78
2023/05/13 02:40:40;;;;;;;5.70;3.13;;;;;;;;;;5033208;28;20039;-78
2023/05/13 02:43:05;;;;;;;5.22;3.17;;;;;;;;;;5025279;28;20144;-79
2023/05/13 02:45:32;;;;;;;7.28;2.75;;;;;;;;;;5030381;28;20044;-79
2023/05/13 02:47:57;;;;;;;7.25;3.80;;;;;;;;;;5017572;28;20030;-79
2023/05/13 02:50:22;;;;;;;5.95;3.00;;;;;;;;;;5029297;28;20042;-79
2023/05/13 02:52:48;;;;;;;5.18;2.92;;;;;;;;;;5040085;28;20128;-79
2023/05/13 02:55:13;;;;;;;6.53;3.53;;;;;;;;;;5021739;28;20385;-79
2023/05/13 02:57:39;;;;;;;5.78;2.83;;;;;;;;;;5032228;28;20037;-79
2023/05/13 03:00:05;;;;;;;8.00;3.25;;;;;;;;;;5032290;28;20540;-79
2023/05/13 03:02:31;;;;;;;4.60;2.90;;;;;;;;;;5031732;28;20044;-79
2023/05/13 03:04:57;;;;;;;5.57;3.30;;;;;;;;;;5036356;28;20034;-79
2023/05/13 03:07:23;;;;;;;7.07;2.70;;;;;;;;;;5033592;28;20099;-78
2023/05/13 03:09:48;;;;;;;6.00;3.25;;;;;;;;;;5030374;28;20030;-80
2023/05/13 03:12:14;;;;;;;5.90;3.33;;;;;;;;;;5021156;28;20030;-79
2023/05/13 03:14:40;;;;;;;6.97;3.05;;;;;;;;;;5031269;28;20535;-79
2023/05/13 03:17:05;;;;;;;5.88;3.17;;;;;;;;;;5014073;28;20084;-78
2023/05/13 03:19:33;;;;;;;6.15;2.75;;;;;;;;;;5032621;28;20258;-78
2023/05/13 03:21:58;;;;;;;6.40;3.03;;;;;;;;;;5032925;28;20045;-79
2023/05/13 03:24:24;;;;;;;5.38;3.20;;;;;;;;;;5017745;28;20110;-79
2023/05/13 03:26:49;;;;;;;5.43;3.40;;;;;;;;;;5032910;28;20053;-79
2023/05/13 03:29:15;;;;;;;8.40;3.22;;;;;;;;;;5030543;28;20043;-79
2023/05/13 03:31:40;;;;;;;6.95;2.95;;;;;;;;;;5030882;28;20037;-79
2023/05/13 03:34:06;;;;;;;6.70;3.22;;;;;;;;;;5031324;28;20033;-79
2023/05/13 03:36:31;;;;;;;5.28;3.20;;;;;;;;;;5032927;28;20052;-79
2023/05/13 03:38:57;;;;;;;5.30;3.03;;;;;;;;;;5031208;28;20037;-80
2023/05/13 03:41:22;;;;;;;6.60;3.35;;;;;;;;;;5018537;28;20141;-79
2023/05/13 03:43:47;;;;;;;6.53;3.20;;;;;;;;;;5032176;28;20037;-80
2023/05/13 03:46:13;;;;;;;8.75;3.60;;;;;;;;;;5030293;28;20034;-78
2023/05/13 03:48:38;;;;;;;4.85;2.83;;;;;;;;;;5033048;28;20040;-78
2023/05/13 03:51:03;;;;;;;6.97;3.10;;;;;;;;;;5032938;28;20115;-81
2023/05/13 03:53:29;;;;;;;5.72;3.22;;;;;;;;;;5033785;28;20397;-80
2023/05/13 03:55:54;;;;;;;6.75;3.30;;;;;;;;;;5030904;28;20563;-80
2023/05/13 03:58:23;;;;;;;6.03;3.10;;;;;;;;;;5031360;28;20390;-80
2023/05/13 04:00:48;;;;;;;6.68;3.42;;;;;;;;;;5025222;28;20038;-79
2023/05/13 04:03:15;;;;;;;5.90;3.20;;;;;;;;;;5032941;28;20037;-79
2023/05/13 04:05:40;;;;;;;8.02;3.42;;;;;;;;;;5027479;28;20585;-80
2023/05/13 04:08:06;;;;;;;6.93;3.17;;;;;;;;;;5029025;28;20033;-80
2023/05/13 04:10:31;;;;;;;8.30;3.10;;;;;;;;;;5019273;28;20759;-77
2023/05/13 04:12:57;;;;;;;5.13;3.33;;;;;;;;;;5036503;28;20037;-78
2023/05/13 04:15:22;;;;;;;7.28;3.40;;;;;;;;;;5036758;28;20488;-77
2023/05/13 04:17:47;;;;;;;6.50;3.60;;;;;;;;;;5031427;28;20477;-77
2023/05/13 04:20:13;;;;;;;6.40;3.50;;;;;;;;;;5028532;28;20119;-77
2023/05/13 04:22:38;;;;;;;5.75;3.22;;;;;;;;;;5034320;28;20037;-77
2023/05/13 04:25:04;;;;;;;7.15;3.50;;;;;;;;;;5028795;28;20052;-77
2023/05/13 04:27:29;;;;;;;5.32;3.08;;;;;;;;;;5023512;28;20045;-76
2023/05/13 04:29:55;;;;;;;5.80;3.28;;;;;;;;;;5032024;28;20065;-77
2023/05/13 04:32:20;;;;;;;7.10;3.33;;;;;;;;;;5015370;28;20047;-78
2023/05/13 04:34:49;;;;;;;6.90;3.30;;;;;;;;;;5018003;28;20041;-77
2023/05/13 04:37:15;;;;;;;6.13;3.33;;;;;;;;;;5033200;28;20049;-77
2023/05/13 04:39:42;;;;;;;5.30;3.10;;;;;;;;;;5037047;28;20515;-77
2023/05/13 04:42:07;;;;;;;8.93;3.57;;;;;;;;;;5038621;28;20033;-77
2023/05/13 04:44:33;;;;;;;7.68;3.33;;;;;;;;;;5035865;28;20448;-77
2023/05/13 04:46:59;;;;;;;6.90;3.20;;;;;;;;;;5035406;28;20056;-77
2023/05/13 04:49:24;;;;;;;6.60;3.20;;;;;;;;;;5033881;28;20404;-77
2023/05/13 04:51:50;;;;;;;7.47;4.20;;;;;;;;;;5036376;28;20489;-77
2023/05/13 04:54:15;;;;;;;7.97;3.50;;;;;;;;;;5037612;28;20074;-77
2023/05/13 04:56:40;;;;;;;5.40;3.10;;;;;;;;;;5037835;28;20034;-78
2023/05/13 04:59:07;;;;;;;7.28;3.30;;;;;;;;;;5036886;28;20038;-76
2023/05/13 05:01:33;;;;;;;7.57;3.25;;;;;;;;;;5022582;28;20523;-75
2023/05/13 05:03:58;;;;;;;6.20;3.10;;;;;;;;;;5038777;28;20033;-75
2023/05/13 05:06:23;;;;;;;7.05;3.30;;;;;;;;;;5034898;28;20404;-77
2023/05/13 05:08:49;;;;;;;7.60;2.85;;;;;;;;;;5034482;28;20539;-78
2023/05/13 05:11:14;;;;;;;8.70;2.97;;;;;;;;;;5037132;28;20401;-76
2023/05/13 05:13:40;;;;;;;6.95;3.15;;;;;;;;;;5035943;28;20448;-76
2023/05/13 05:16:05;;;;;;;6.07;2.85;;;;;;;;;;5037846;28;20067;-76
2023/05/13 05:18:31;;;;;;;6.15;3.08;;;;;;;;;;5027294;28;20091;-76
2023/05/13 05:20:56;;;;;;;5.78;2.80;;;;;;;;;;5032580;28;20053;-77
2023/05/13 05:23:21;;;;;;;6.25;2.97;;;;;;;;;;5034125;28;20038;-77
2023/05/13 05:25:47;;;;;;;6.05;3.13;;;;;;;;;;5034260;28;20081;-76
2023/05/13 05:28:12;;;;;;;6.30;3.00;;;;;;;;;;5036409;28;20037;-76
2023/05/13 05:30:40;;;;;;;6.57;3.10;;;;;;;;;;5026339;28;20057;-76
2023/05/13 05:33:06;;;;;;;6.60;3.13;;;;;;;;;;5035658;28;20409;-76
2023/05/13 05:35:35;;;;;;;5.20;2.92;;;;;;;;;;5035177;28;20029;-77
2023/05/13 05:38:01;;;;;;;4.85;2.90;;;;;;;;;;5018281;28;20497;-77
2023/05/13 05:40:27;;;;;;;6.50;3.00;;;;;;;;;;5003308;28;20040;-77
2023/05/13 05:42:52;;;;;;;8.27;3.13;;;;;;;;;;5022607;28;20036;-76
2023/05/13 05:45:18;;;;;;;5.65;2.50;;;;;;;;;;5026205;28;20073;-77
2023/05/13 05:47:43;;;;;;;4.95;2.55;;;;;;;;;;5026799;28;20033;-76
2023/05/13 05:50:09;;;;;;;4.95;2.70;;;;;;;;;;5036553;28;20040;-76
2023/05/13 05:52:34;;;;;;;5.72;2.70;;;;;;;;;;5036981;28;20052;-76
2023/05/13 05:55:00;;;;;;;6.72;2.50;;;;;;;;;;5032968;28;20032;-77
2023/05/13 05:57:25;;;;;;;6.05;2.70;;;;;;;;;;5024002;28;20033;-78
2023/05/13 05:59:50;;;;;;;6.88;2.83;;;;;;;;;;5043010;28;20476;-77
2023/05/13 06:02:16;;;;;;;5.70;2.42;;;;;;;;;;5032793;28;20040;-77
2023/05/13 06:04:41;;;;;;;4.28;2.60;;;;;;;;;;5031587;28;20064;-78
2023/05/13 06:07:07;;;;;;;5.90;2.70;;;;;;;;;;5019818;28;20033;-78
2023/05/13 06:09:33;;;;;;;7.47;2.80;;;;;;;;;;5033149;28;20116;-77
2023/05/13 06:11:58;;;;;;;4.68;2.60;;;;;;;;;;5033188;28;20195;-77
2023/05/13 06:14:23;;;;;;;5.57;2.50;;;;;;;;;;5025398;28;20545;-77
2023/05/13 06:16:49;;;;;;;4.63;2.70;;;;;;;;;;5032103;28;20030;-77
2023/05/13 06:19:14;;;;;;;7.32;2.33;;;;;;;;;;5035272;28;20151;-77
2023/05/13 06:21:41;;;;;;;7.10;2.50;;;;;;;;;;5033195;28;20026;-78
2023/05/13 06:24:08;;;;;;;4.95;2.40;;;;;;;;;;5030815;28;20044;-78
2023/05/13 06:26:33;;;;;;;4.50;2.40;;;;;;;;;;5033625;28;20040;-77
2023/05/13 06:28:58;;;;;;;5.95;2.70;;;;;;;;;;5037354;28;20040;-77
2023/05/13 06:31:24;;;;;;;5.68;2.47;;;;;;;;;;5018282;28;20146;-77
2023/05/13 06:33:49;;;;;;;4.68;2.13;;;;;;;;;;5033824;28;20033;-78
2023/05/13 06:36:15;;;;;;;5.72;2.70;;;;;;;;;;5034819;28;20057;-77
2023/05/13 06:38:40;;;;;;;8.65;2.90;;;;;;;;;;5032138;28;20033;-77
2023/05/13 06:41:06;;;;;;;4.63;2.30;;;;;;;;;;5030689;28;20114;-78
2023/05/13 06:43:31;;;;;;;3.90;2.15;;;;;;;;;;5018679;28;20045;-77
2023/05/13 06:45:57;;;;;;;5.35;2.20;;;;;;;;;;5033903;28;20128;-78
2023/05/13 06:48:22;;;;;;;5.88;2.15;;;;;;;;;;5036649;28;20044;-77
2023/05/13 06:50:48;;;;;;;4.35;1.92;;;;;;;;;;5032810;28;20041;-78
2023/05/13 06:53:14;;;;;;;4.15;1.98;;;;;;;;;;5015837;28;20059;-78
2023/05/13 06:55:42;;;;;;;4.57;2.10;;;;;;;;;;5017377;28;21091;-77
2023/05/13 06:58:08;;;;;;;4.07;2.00;;;;;;;;;;5029526;28;20527;-78
2023/05/13 07:00:40;;;;;;;5.47;1.75;;;;;;;;;;5014627;28;20428;-78
2023/05/13 07:03:06;;;;;;;3.78;1.90;;;;;;;;;;5040716;28;20034;-78
2023/05/13 07:05:32;;;;;;;5.00;2.08;;;;;;;;;;5030889;28;20701;-78
2023/05/13 07:07:58;;;;;;;3.83;1.90;;;;;;;;;;5021670;28;20555;-78
2023/05/13 07:10:23;;;;;;;4.40;2.20;;;;;;;;;;5017646;28;20041;-78
2023/05/13 07:12:49;;;;;;;4.60;2.00;;;;;;;;;;5033768;28;20509;-78
2023/05/13 07:15:15;;;;;;;3.88;1.95;;;;;;;;;;5037148;28;20045;-78
2023/05/13 07:17:43;;;;;;;4.43;1.92;;;;;;;;;;5033757;28;20071;-77
2023/05/13 07:20:09;;;;;;;4.05;2.03;;;;;;;;;;5033617;28;20047;-78
2023/05/13 07:22:35;;;;;;;3.30;1.80;;;;;;;;;;5033299;28;20040;-77
2023/05/13 07:25:00;;;;;;;4.10;2.20;;;;;;;;;;5031282;28;20060;-78
2023/05/13 07:27:25;;;;;;;4.18;1.60;;;;;;;;;;5034927;28;20501;-78
2023/05/13 07:29:51;;;;;;;4.07;1.75;;;;;;;;;;5024171;28;20584;-78
2023/05/13 07:32:16;;;;;;;5.10;1.63;;;;;;;;;;5033079;28;20511;-77
2023/05/13 07:34:42;;;;;;;4.60;1.63;;;;;;;;;;5032310;28;20060;-76
2023/05/13 07:37:07;;;;;;;4.07;1.70;;;;;;;;;;5034298;28;20048;-77
2023/05/13 07:39:32;;;;;;;6.15;1.60;;;;;;;;;;5032921;28;20036;-77
2023/05/13 07:41:58;;;;;;;4.65;1.58;;;;;;;;;;5033585;28;20025;-77
2023/05/13 07:44:23;;;;;;;3.13;1.52;;;;;;;;;;5031910;28;20172;-77
2023/05/13 07:46:52;;;;;;;7.18;1.77;;;;;;;;;;5034209;28;20527;-77
2023/05/13 07:49:17;;;;;;;4.07;1.65;;;;;;;;;;5031446;28;20040;-77
2023/05/13 07:51:43;;;;;;;4.88;1.50;;;;;;;;;;5031062;28;20081;-77
2023/05/13 07:54:09;;;;;;;2.60;1.50;;;;;;;;;;5017167;28;20090;-79
2023/05/13 07:56:34;;;;;;;5.68;1.70;;;;;;;;;;5031405;28;20037;-73
2023/05/13 07:59:00;;;;;;;4.72;1.63;;;;;;;;;;5032591;28;20037;-75
2023/05/13 08:01:26;;;;;;;3.42;1.63;;;;;;;;;;5031125;28;20041;-75
2023/05/13 08:03:51;;;;;;;5.53;1.60;;;;;;;;;;5029620;28;20037;-75
2023/05/13 08:06:16;;;;;;;3.92;1.80;;;;;;;;;;5030359;28;20037;-75
2023/05/13 08:08:42;;;;;;;4.82;1.45;;;;;;;;;;5029859;28;20341;-75
2023/05/13 08:11:07;;;;;;;4.13;1.85;;;;;;;;;;5031603;28;20029;-75
2023/05/13 08:13:32;;;;;;;3.08;1.70;;;;;;;;;;5031579;28;20048;-75
2023/05/13 08:16:02;;;;;;;2.60;1.27;;;;;;;;;;5031673;28;20030;-75
2023/05/13 08:18:28;;;;;;;2.90;1.58;;;;;;;;;;5031149;28;20501;-75
2023/05/13 08:20:53;;;;;;;3.42;1.50;;;;;;;;;;5030084;28;20045;-75
2023/05/13 08:23:19;;;;;;;3.15;1.60;;;;;;;;;;5033594;28;20045;-75
2023/05/13 08:25:44;;;;;;;6.45;1.75;;;;;;;;;;5029800;28;20037;-75
2023/05/13 08:28:09;;;;;;;3.85;1.70;;;;;;;;;;5030389;28;20037;-75
2023/05/13 08:30:35;;;;;;;7.05;1.98;;;;;;;;;;5031667;28;20099;-75
2023/05/13 08:33:00;;;;;;;4.38;1.80;;;;;;;;;;5030933;28;20056;-76
2023/05/13 08:35:26;;;;;;;3.80;1.70;;;;;;;;;;5033265;28;20051;-75
2023/05/13 08:37:51;;;;;;;3.40;1.52;;;;;;;;;;5034120;28;20037;-75
2023/05/13 08:40:17;;;;;;;3.60;1.70;;;;;;;;;;5032896;28;20489;-75
2023/05/13 08:42:45;;;;;;;3.88;1.80;;;;;;;;;;5032580;28;20033;-75
2023/05/13 08:45:10;;;;;;;5.18;1.85;;;;;;;;;;5031531;28;20041;-75
2023/05/13 08:48:02;;;;;;;3.53;1.60;;;;;;;;;;5036125;28;20041;-75
2023/05/13 08:50:28;;;;;;;4.22;1.80;;;;;;;;;;5031162;28;20037;-75
2023/05/13 08:52:54;;;;;;;4.00;1.83;;;;;;;;;;5033176;28;20103;-76
2023/05/13 08:55:20;;;;;;;3.88;2.05;;;;;;;;;;5030222;28;20033;-76
2023/05/13 08:57:45;;;;;;;4.93;1.75;;;;;;;;;;5033728;28;20037;-73
2023/05/13 09:00:13;;;;;;;3.08;1.40;;;;;;;;;;5030673;28;20381;-76
2023/05/13 09:02:38;;;;;;;;;;;;;;;;;;5029042;28;20030;-76
2023/05/13 09:05:06;;;;;;;4.28;1.90;;;;;;;;;;5035600;28;19916;-76
2023/05/13 09:07:32;;;;;;;4.20;1.60;;;;;;;;;;5031424;28;20076;-76
2023/05/13 09:09:58;;;;;;;5.75;1.70;;;;;;;;;;5029737;28;20047;-77
2023/05/13 09:12:48;;;;;;;3.58;1.52;;;;;;;;;;5030240;28;20041;-76
2023/05/13 09:15:16;;;;;;;3.80;1.67;;;;;;;;;;5029426;28;20497;-77
2023/05/13 09:17:44;;;;;;;3.63;1.50;;;;;;;;;;5030284;28;20546;-77
2023/05/13 09:20:11;;;;;;;5.88;2.25;;;;;;;;;;5039222;28;21392;-73
2023/05/13 09:22:49;;;;;;;4.05;1.70;;;;;;;;;;5031167;28;20048;-73
2023/05/13 09:25:17;;;;;;;2.72;1.50;;;;;;;;;;5033380;28;20053;-73
2023/05/13 09:27:45;;;;;;;4.90;1.45;;;;;;;;;;5026401;28;20497;-75
2023/05/13 09:30:11;;;;;;;5.18;1.63;;;;;;;;;;5031053;28;20029;-77
2023/05/13 09:32:37;;;;;;;5.60;1.77;;;;;;;;;;5034089;28;20041;-77
2023/05/13 09:35:10;;;;;;;2.97;1.23;;;;;;;;;;5031621;28;20037;-77
2023/05/13 09:37:36;;;;;;;2.80;1.45;;;;;;;;;;5036952;28;20041;-78
2023/05/13 09:40:01;;;;;;;3.55;1.40;;;;;;;;;;5033115;28;20045;-79
2023/05/13 09:42:27;;;;;;;3.83;1.50;;;;;;;;;;5032195;28;20063;-78
2023/05/13 09:44:52;;;;;;;3.03;1.30;;;;;;;;;;5034851;28;20420;-79
2023/05/13 09:47:17;;;;;;;4.30;1.45;;;;;;;;;;5033133;28;21024;-78
2023/05/13 09:49:44;;;;;;;2.53;1.20;;;;;;;;;;5032972;28;20525;-80
2023/05/13 09:52:10;;;;;;;2.58;1.20;;;;;;;;;;5032863;28;20049;-79
2023/05/13 09:54:39;;;;;;;2.83;1.27;;;;;;;;;;5032988;28;20612;-78
2023/05/13 09:57:05;;;;;;;2.97;1.23;;;;;;;;;;5034959;28;20032;-78
2023/05/13 09:59:34;;;;;;;3.78;1.30;;;;;;;;;;5034145;28;20099;-80
2023/05/13 10:02:09;;;;;;;3.92;1.27;;;;;;;;;;5024835;28;20083;-81
2023/05/13 10:04:34;;;;;;;3.85;1.15;;;;;;;;;;5031992;28;20049;-79
2023/05/13 10:07:02;;;;;;;2.95;1.30;;;;;;;;;;5033736;28;20195;-80
2023/05/13 10:09:35;;;;;;;4.00;1.30;;;;;;;;;;5018675;28;20039;-77
2023/05/13 10:12:02;;;;;;;2.47;1.20;;;;;;;;;;5025044;28;20103;-78
2023/05/13 10:14:28;;;;;;;2.60;1.00;;;;;;;;;;5032854;28;20485;-77
2023/05/13 10:16:55;;;;;;;3.13;1.20;;;;;;;;;;5033268;28;20034;-77
2023/05/13 10:19:23;;;;;;;5.03;1.55;;;;;;;;;;5035286;28;20084;-77
2023/05/13 10:24:25;;;;;;;2.97;1.00;;;;;;;;;;5312945;23;20056;-80
2023/05/13 10:26:52;;;;;;;3.83;1.10;;;;;;;;;;4991116;28;20424;-80
2023/05/13 10:29:18;;;;;;;2.40;1.00;;;;;;;;;;4977439;28;20037;-79
2023/05/13 10:31:44;;;;;;;2.83;1.05;;;;;;;;;;4974384;28;20119;-80
2023/05/13 10:34:10;;;;;;;4.10;1.30;;;;;;;;;;4974563;28;20117;-81
2023/05/13 10:36:38;;;;;;;2.50;1.13;;;;;;;;;;4974408;28;20802;-80
2023/05/13 10:39:36;;;;;;;3.40;1.13;;;;;;;;;;4990950;28;20041;-80
2023/05/13 10:42:30;;;;;;;21.08;2.50;;;;;;;;;;5002867;28;20030;-80
2023/05/13 10:45:00;;;;;;;3.55;1.23;;;;;;;;;;5004694;28;20628;-79
2023/05/13 10:47:26;;;;;;;2.58;1.20;;;;;;;;;;4988949;28;20480;-79
2023/05/13 10:49:52;;;;;;;2.70;1.20;;;;;;;;;;4989168;28;20045;-79
2023/05/13 10:52:17;;;;;;;2.53;0.90;;;;;;;;;;4991652;28;20038;-79
2023/05/13 10:54:43;;;;;;;2.75;1.10;;;;;;;;;;4977377;28;20040;-79
2023/05/13 10:57:09;;;;;;;3.22;1.25;;;;;;;;;;4979565;28;20381;-79
2023/05/13 10:59:36;;;;;;;5.10;1.08;;;;;;;;;;4991159;28;20033;-79
2023/05/13 11:02:22;;;;;;;3.38;1.20;;;;;;;;;;5005288;28;20515;-79
2023/05/13 11:04:59;;;;;;;3.25;1.10;;;;;;;;;;4983426;28;20034;-84
2023/05/13 11:07:27;;;;;;;1.92;1.00;;;;;;;;;;4989349;28;20060;-79
2023/05/13 11:09:53;;;;;;;1.98;1.00;;;;;;;;;;4990999;28;20865;-79
2023/05/13 11:12:18;;;;;;;2.40;1.05;;;;;;;;;;4990629;28;20041;-80
2023/05/13 11:14:44;;;;;;;2.70;1.08;;;;;;;;;;4989464;28;20037;-79
2023/05/13 11:17:10;;;;;;;2.90;1.48;;;;;;;;;;4987808;28;20073;-80
2023/05/13 11:19:37;;;;;;;4.43;1.20;;;;;;;;;;4961203;28;20034;-81
2023/05/13 11:22:09;;;;;;;1.98;0.93;;;;;;;;;;4982405;28;20079;-84
2023/05/13 11:24:35;;;;;;;2.67;1.02;;;;;;;;;;4987155;28;21071;-81
2023/05/13 11:27:15;;;;;;;3.40;1.13;;;;;;;;;;4960517;28;20057;-79
2023/05/13 11:29:48;;;;;;;3.05;1.13;;;;;;;;;;4959033;28;20080;-80
2023/05/13 11:32:14;;;;;;;4.32;1.45;;;;;;;;;;4976773;28;20137;-80
2023/05/13 11:34:49;;;;;;;3.75;0.98;;;;;;;;;;4975468;28;20536;-80
2023/05/13 11:37:15;;;;;;;2.05;1.10;;;;;;;;;;4977747;28;20137;-80
2023/05/13 11:39:41;;;;;;;3.40;1.10;;;;;;;;;;4975506;28;20096;-81
2023/05/13 11:42:07;;;;;;;3.25;1.20;;;;;;;;;;4975079;28;20434;-80
2023/05/13 11:44:34;;;;;;;3.17;1.40;;;;;;;;;;4976679;28;20042;-80
2023/05/13 11:47:07;;;;;;;3.73;1.10;;;;;;;;;;4974570;28;20062;-81
2023/05/13 11:49:37;;;;;;;2.33;0.90;;;;;;;;;;4973696;28;20038;-82
2023/05/13 11:52:10;;;;;;;2.90;0.93;;;;;;;;;;4959324;28;20116;-81
2023/05/13 11:54:46;;;;;;;2.58;1.10;;;;;;;;;;4985613;28;20406;-80
2023/05/13 11:57:32;;;;;;;3.20;1.20;;;;;;;;;;4975533;28;20048;-80
2023/05/13 11:59:58;;;;;;;2.97;1.20;;;;;;;;;;4977933;28;20069;-80
2023/05/13 12:02:33;;;;;;;2.80;1.00;;;;;;;;;;4974322;28;20637;-80
2023/05/13 12:05:00;;;;;;;6.30;1.25;;;;;;;;;;4960992;28;20413;-79
2023/05/13 12:07:46;;;;;;;2.67;1.10;;;;;;;;;;4973012;28;20030;-79
2023/05/13 12:10:12;;;;;;;4.97;1.20;;;;;;;;;;4897621;29;20547;-79
2023/05/13 12:12:39;;;;;;;3.35;1.17;;;;;;;;;;4906337;29;20183;-79
2023/05/13 12:15:06;;;;;;;5.22;1.42;;;;;;;;;;4912879;29;20043;-81
2023/05/13 12:17:32;;;;;;;3.50;1.10;;;;;;;;;;4913416;29;20399;-81
2023/05/13 12:20:12;;;;;;;3.45;1.30;;;;;;;;;;4897965;29;20043;-78
2023/05/13 12:22:44;;;;;;;2.58;1.10;;;;;;;;;;4895924;29;20081;-80
2023/05/13 12:25:34;;;;;;;6.22;1.35;;;;;;;;;;4914861;29;20078;-80
2023/05/13 12:28:15;;;;;;;7.25;1.40;;;;;;;;;;4901213;29;20574;-79
2023/05/13 12:31:01;;;;;;;3.20;1.30;;;;;;;;;;4896784;29;20527;-79
2023/05/13 12:33:29;;;;;;;4.50;1.20;;;;;;;;;;4907032;29;20468;-79
2023/05/13 12:36:13;;;;;;;2.92;1.00;;;;;;;;;;4912573;29;20040;-79
2023/05/13 12:38:39;;;;;;;3.33;1.20;;;;;;;;;;4898182;29;20502;-80
2023/05/13 12:41:14;;;;;;;4.10;1.30;;;;;;;;;;4911328;29;20144;-75
2023/05/13 12:43:39;;;;;;;2.83;1.30;;;;;;;;;;4886800;29;20555;-75
2023/05/13 12:46:05;;;;;;;4.35;1.30;;;;;;;;;;4914356;28;20176;-75
2023/05/13 12:48:32;;;;;;;3.42;1.23;;;;;;;;;;4973075;28;20038;-75
2023/05/13 12:50:57;;;;;;;3.25;1.23;;;;;;;;;;4965665;28;20056;-77
2023/05/13 12:53:23;;;;;;;3.80;1.40;;;;;;;;;;4974708;28;20084;-76
2023/05/13 12:55:48;;;;;;;3.65;1.35;;;;;;;;;;4993017;28;20034;-76
2023/05/13 12:58:14;;;;;;;4.88;1.20;;;;;;;;;;4963559;28;20042;-76
2023/05/13 13:00:39;;;;;;;4.85;1.40;;;;;;;;;;4978409;28;20212;-76
2023/05/13 13:03:05;;;;;;;4.35;1.38;;;;;;;;;;4979955;28;20161;-77
2023/05/13 13:05:30;;;;;;;2.92;1.40;;;;;;;;;;4994964;28;20480;-76
2023/05/13 13:07:56;;;;;;;3.35;1.40;;;;;;;;;;4976772;28;20045;-76
2023/05/13 13:10:21;;;;;;;4.95;1.50;;;;;;;;;;4998283;28;20584;-76
2023/05/13 13:12:48;;;;;;;4.22;1.50;;;;;;;;;;4995339;28;20058;-76
2023/05/13 13:15:13;;;;;;;5.03;1.70;;;;;;;;;;4994184;28;20026;-75
2023/05/13 13:17:39;;;;;;;3.95;1.55;;;;;;;;;;4994464;28;20052;-76
2023/05/13 13:20:05;;;;;;;3.45;1.40;;;;;;;;;;4993891;28;20041;-77
2023/05/13 13:22:32;;;;;;;5.22;1.60;;;;;;;;;;4995137;28;20030;-77
2023/05/13 13:24:58;;;;;;;3.05;1.63;;;;;;;;;;4994235;28;20045;-78
2023/05/13 13:27:24;;;;;;;3.92;1.20;;;;;;;;;;4994755;28;20405;-78
2023/05/13 13:29:50;;;;;;;3.63;1.48;;;;;;;;;;4979325;28;20040;-77
2023/05/13 13:32:15;;;;;;;3.05;1.40;;;;;;;;;;4994982;28;20034;-77
2023/05/13 13:34:40;;;;;;;3.40;1.40;;;;;;;;;;4978612;28;20038;-78
2023/05/13 13:37:06;;;;;;;3.10;1.35;;;;;;;;;;4978661;28;20082;-77
2023/05/13 13:39:32;;;;;;;5.20;1.40;;;;;;;;;;4978426;28;20612;-78
2023/05/13 13:41:57;;;;;;;3.13;1.10;;;;;;;;;;4992683;28;20049;-78
2023/05/13 13:44:23;;;;;;;6.60;1.58;;;;;;;;;;4999613;28;20088;-77
2023/05/13 13:46:48;;;;;;;4.65;1.40;;;;;;;;;;4994809;28;20030;-77
2023/05/13 13:49:13;;;;;;;3.05;1.00;;;;;;;;;;4976214;28;20707;-78
2023/05/13 13:51:39;;;;;;;6.38;1.50;;;;;;;;;;4994254;28;20445;-75
2023/05/13 13:54:05;;;;;;;2.38;1.17;;;;;;;;;;4977188;28;20038;-76
2023/05/13 13:56:31;;;;;;;3.10;1.40;;;;;;;;;;4994921;28;20069;-76
2023/05/13 13:58:56;;;;;;;2.75;1.20;;;;;;;;;;4976442;28;20036;-77
2023/05/13 14:01:21;;;;;;;4.05;1.40;;;;;;;;;;4995414;28;20048;-77
2023/05/13 14:03:51;;;;;;;4.75;1.38;;;;;;;;;;4960144;28;20041;-77
2023/05/13 14:06:17;;;;;;;3.05;1.40;;;;;;;;;;4980927;28;20117;-76
2023/05/13 14:08:42;;;;;;;2.80;1.40;;;;;;;;;;4977551;28;20113;-77
2023/05/13 14:11:08;;;;;;;5.72;1.63;;;;;;;;;;4993738;28;20037;-77
2023/05/13 14:13:33;;;;;;;3.13;1.40;;;;;;;;;;4994639;28;20103;-76
2023/05/13 14:15:58;;;;;;;4.65;1.17;;;;;;;;;;4977748;28;20036;-76
2023/05/13 14:18:24;;;;;;;2.75;1.40;;;;;;;;;;4963045;28;20404;-76
2023/05/13 14:20:49;;;;;;;3.92;1.45;;;;;;;;;;4995965;28;20034;-76
2023/05/13 14:23:17;;;;;;;2.40;1.20;;;;;;;;;;4992944;28;20038;-77
2023/05/13 14:25:43;;;;;;;3.67;1.45;;;;;;;;;;4958879;28;20405;-76
2023/05/13 14:28:11;;;;;;;3.65;1.70;;;;;;;;;;4962278;28;20038;-77
2023/05/13 14:30:36;;;;;;;2.95;1.48;;;;;;;;;;4960647;28;20038;-76
2023/05/13 14:33:02;;;;;;;8.88;1.77;;;;;;;;;;4977236;28;20040;-77
2023/05/13 14:35:27;;;;;;;4.60;1.60;;;;;;;;;;4975476;28;20038;-77
2023/05/13 14:37:52;;;;;;;3.95;1.40;;;;;;;;;;4992946;28;20034;-76
2023/05/13 14:40:18;;;;;;;3.00;1.30;;;;;;;;;;4980125;28;20143;-76
2023/05/13 14:42:43;;;;;;;3.25;1.55;;;;;;;;;;4959848;28;20033;-76
2023/05/13 14:45:09;;;;;;;3.30;1.45;;;;;;;;;;4975734;28;20520;-76